sensor_id;sensor_type;location;lat;lon;timestamp;P1;durP1;ratioP1;P2;durP2;ratioP2
78027;SDS011;74605;45.864;11.474;2023-12-29T00:02:17;31.75;;;16.65;;
78027;SDS011;74605;45.864;11.474;2023-12-29T00:04:43;29.95;;;16.50;;
78027;SDS011;74605;45.864;11.474;2023-12-29T00:07:09;32.50;;;16.90;;
78027;SDS011;74605;45.864;11.474;2023-12-29T00:09:35;30.23;;;16.08;;
78027;SDS011;74605;45.864;11.474;2023-12-29T00:12:06;34.70;;;19.30;;
78027;SDS011;74605;45.864;11.474;2023-12-29T00:14:33;31.45;;;15.60;;
78027;SDS011;74605;45.864;11.474;2023-12-29T00:17:03;32.83;;;16.50;;
78027;SDS011;74605;45.864;11.474;2023-12-29T00:19:30;30.13;;;15.50;;
78027;SDS011;74605;45.864;11.474;2023-12-29T00:21:56;29.08;;;16.00;;
78027;SDS011;74605;45.864;11.474;2023-12-29T00:24:22;31.40;;;15.90;;
78027;SDS011;74605;45.864;11.474;2023-12-29T00:26:48;30.17;;;16.20;;
78027;SDS011;74605;45.864;11.474;2023-12-29T00:29:14;32.25;;;16.50;;
78027;SDS011;74605;45.864;11.474;2023-12-29T00:31:43;29.73;;;17.00;;
78027;SDS011;74605;45.864;11.474;2023-12-29T00:34:09;35.63;;;18.67;;
78027;SDS011;74605;45.864;11.474;2023-12-29T00:36:35;37.05;;;20.27;;
78027;SDS011;74605;45.864;11.474;2023-12-29T00:39:01;32.83;;;17.33;;
78027;SDS011;74605;45.864;11.474;2023-12-29T00:41:27;30.73;;;16.17;;
78027;SDS011;74605;45.864;11.474;2023-12-29T00:43:53;33.83;;;17.67;;
78027;SDS011;74605;45.864;11.474;2023-12-29T00:46:19;35.65;;;16.38;;
78027;SDS011;74605;45.864;11.474;2023-12-29T00:48:45;35.37;;;17.30;;
78027;SDS011;74605;45.864;11.474;2023-12-29T00:51:11;36.50;;;16.45;;
78027;SDS011;74605;45.864;11.474;2023-12-29T00:53:37;33.00;;;16.73;;
78027;SDS011;74605;45.864;11.474;2023-12-29T00:56:09;31.25;;;14.98;;
78027;SDS011;74605;45.864;11.474;2023-12-29T00:58:38;24.90;;;12.97;;
78027;SDS011;74605;45.864;11.474;2023-12-29T01:01:07;30.52;;;15.30;;
78027;SDS011;74605;45.864;11.474;2023-12-29T01:03:34;28.30;;;14.38;;
78027;SDS011;74605;45.864;11.474;2023-12-29T01:06:00;28.25;;;15.30;;
78027;SDS011;74605;45.864;11.474;2023-12-29T01:08:26;30.33;;;15.25;;
78027;SDS011;74605;45.864;11.474;2023-12-29T01:10:53;26.00;;;13.70;;
78027;SDS011;74605;45.864;11.474;2023-12-29T01:13:19;24.60;;;12.38;;
78027;SDS011;74605;45.864;11.474;2023-12-29T01:15:45;23.50;;;11.77;;
78027;SDS011;74605;45.864;11.474;2023-12-29T01:18:11;20.77;;;10.97;;
78027;SDS011;74605;45.864;11.474;2023-12-29T01:20:37;20.83;;;10.57;;
78027;SDS011;74605;45.864;11.474;2023-12-29T01:23:06;20.73;;;10.27;;
78027;SDS011;74605;45.864;11.474;2023-12-29T01:25:33;20.33;;;10.65;;
78027;SDS011;74605;45.864;11.474;2023-12-29T01:27:59;17.27;;;9.38;;
78027;SDS011;74605;45.864;11.474;2023-12-29T01:30:24;21.25;;;10.40;;
78027;SDS011;74605;45.864;11.474;2023-12-29T01:32:51;21.95;;;10.90;;
78027;SDS011;74605;45.864;11.474;2023-12-29T01:35:16;20.80;;;10.63;;
78027;SDS011;74605;45.864;11.474;2023-12-29T01:37:42;18.67;;;9.50;;
78027;SDS011;74605;45.864;11.474;2023-12-29T01:40:08;18.33;;;9.30;;
78027;SDS011;74605;45.864;11.474;2023-12-29T01:42:35;19.50;;;9.90;;
78027;SDS011;74605;45.864;11.474;2023-12-29T01:45:01;22.30;;;10.68;;
78027;SDS011;74605;45.864;11.474;2023-12-29T01:47:27;17.37;;;9.27;;
78027;SDS011;74605;45.864;11.474;2023-12-29T01:49:53;19.05;;;9.45;;
78027;SDS011;74605;45.864;11.474;2023-12-29T01:52:19;18.58;;;9.07;;
78027;SDS011;74605;45.864;11.474;2023-12-29T01:54:46;19.77;;;8.82;;
78027;SDS011;74605;45.864;11.474;2023-12-29T01:57:14;17.88;;;9.77;;
78027;SDS011;74605;45.864;11.474;2023-12-29T01:59:42;16.30;;;7.60;;
78027;SDS011;74605;45.864;11.474;2023-12-29T02:02:10;17.30;;;8.55;;
78027;SDS011;74605;45.864;11.474;2023-12-29T02:04:37;16.38;;;8.27;;
78027;SDS011;74605;45.864;11.474;2023-12-29T02:07:05;17.80;;;8.27;;
78027;SDS011;74605;45.864;11.474;2023-12-29T02:09:31;14.68;;;7.82;;
78027;SDS011;74605;45.864;11.474;2023-12-29T02:11:59;16.60;;;8.00;;
78027;SDS011;74605;45.864;11.474;2023-12-29T02:14:25;17.42;;;8.45;;
78027;SDS011;74605;45.864;11.474;2023-12-29T02:19:36;15.88;;;8.07;;
78027;SDS011;74605;45.864;11.474;2023-12-29T02:22:03;17.17;;;7.85;;
78027;SDS011;74605;45.864;11.474;2023-12-29T02:24:29;18.20;;;8.07;;
78027;SDS011;74605;45.864;11.474;2023-12-29T02:30:02;15.98;;;8.15;;
78027;SDS011;74605;45.864;11.474;2023-12-29T02:32:33;16.52;;;7.38;;
78027;SDS011;74605;45.864;11.474;2023-12-29T02:35:03;15.93;;;7.60;;
78027;SDS011;74605;45.864;11.474;2023-12-29T02:37:33;16.50;;;7.13;;
78027;SDS011;74605;45.864;11.474;2023-12-29T02:40:02;17.08;;;8.02;;
78027;SDS011;74605;45.864;11.474;2023-12-29T02:42:28;15.70;;;7.25;;
78027;SDS011;74605;45.864;11.474;2023-12-29T02:44:54;15.32;;;7.20;;
78027;SDS011;74605;45.864;11.474;2023-12-29T02:47:20;13.93;;;6.47;;
78027;SDS011;74605;45.864;11.474;2023-12-29T02:49:47;14.15;;;7.22;;
78027;SDS011;74605;45.864;11.474;2023-12-29T02:52:14;16.92;;;8.15;;
78027;SDS011;74605;45.864;11.474;2023-12-29T02:54:40;13.68;;;6.65;;
78027;SDS011;74605;45.864;11.474;2023-12-29T02:57:06;14.17;;;6.83;;
78027;SDS011;74605;45.864;11.474;2023-12-29T02:59:32;13.20;;;6.80;;
78027;SDS011;74605;45.864;11.474;2023-12-29T03:01:58;12.77;;;6.22;;
78027;SDS011;74605;45.864;11.474;2023-12-29T03:04:24;14.52;;;7.03;;
78027;SDS011;74605;45.864;11.474;2023-12-29T03:06:50;15.30;;;6.73;;
78027;SDS011;74605;45.864;11.474;2023-12-29T03:09:16;16.65;;;7.13;;
78027;SDS011;74605;45.864;11.474;2023-12-29T03:11:42;14.43;;;7.05;;
78027;SDS011;74605;45.864;11.474;2023-12-29T03:14:08;12.20;;;6.40;;
78027;SDS011;74605;45.864;11.474;2023-12-29T03:16:34;15.30;;;6.97;;
78027;SDS011;74605;45.864;11.474;2023-12-29T03:19:00;13.38;;;6.13;;
78027;SDS011;74605;45.864;11.474;2023-12-29T03:21:26;13.48;;;6.00;;
78027;SDS011;74605;45.864;11.474;2023-12-29T03:23:52;14.30;;;5.80;;
78027;SDS011;74605;45.864;11.474;2023-12-29T03:26:18;10.90;;;5.13;;
78027;SDS011;74605;45.864;11.474;2023-12-29T03:28:44;11.35;;;5.65;;
78027;SDS011;74605;45.864;11.474;2023-12-29T03:31:10;13.23;;;5.40;;
78027;SDS011;74605;45.864;11.474;2023-12-29T03:33:36;14.73;;;5.32;;
78027;SDS011;74605;45.864;11.474;2023-12-29T03:36:02;15.45;;;5.93;;
78027;SDS011;74605;45.864;11.474;2023-12-29T03:38:28;12.00;;;5.60;;
78027;SDS011;74605;45.864;11.474;2023-12-29T03:40:54;12.13;;;5.65;;
78027;SDS011;74605;45.864;11.474;2023-12-29T03:43:20;11.93;;;5.53;;
78027;SDS011;74605;45.864;11.474;2023-12-29T03:45:46;10.88;;;5.57;;
78027;SDS011;74605;45.864;11.474;2023-12-29T03:48:12;10.53;;;5.03;;
78027;SDS011;74605;45.864;11.474;2023-12-29T03:50:38;11.05;;;4.70;;
78027;SDS011;74605;45.864;11.474;2023-12-29T03:53:04;10.45;;;5.07;;
78027;SDS011;74605;45.864;11.474;2023-12-29T03:55:30;10.23;;;4.70;;
78027;SDS011;74605;45.864;11.474;2023-12-29T03:57:56;11.25;;;5.50;;
78027;SDS011;74605;45.864;11.474;2023-12-29T04:00:22;11.13;;;5.38;;
78027;SDS011;74605;45.864;11.474;2023-12-29T04:02:48;10.98;;;4.75;;
78027;SDS011;74605;45.864;11.474;2023-12-29T04:05:14;9.17;;;4.23;;
78027;SDS011;74605;45.864;11.474;2023-12-29T04:07:40;9.75;;;4.15;;
78027;SDS011;74605;45.864;11.474;2023-12-29T04:10:06;10.02;;;3.95;;
78027;SDS011;74605;45.864;11.474;2023-12-29T04:12:33;9.63;;;3.83;;
78027;SDS011;74605;45.864;11.474;2023-12-29T04:14:59;10.38;;;4.50;;
78027;SDS011;74605;45.864;11.474;2023-12-29T04:17:25;12.48;;;4.82;;
78027;SDS011;74605;45.864;11.474;2023-12-29T04:19:51;9.52;;;5.15;;
78027;SDS011;74605;45.864;11.474;2023-12-29T04:22:18;10.45;;;4.90;;
78027;SDS011;74605;45.864;11.474;2023-12-29T04:24:44;11.17;;;4.87;;
78027;SDS011;74605;45.864;11.474;2023-12-29T04:27:10;10.90;;;4.72;;
78027;SDS011;74605;45.864;11.474;2023-12-29T04:29:36;11.77;;;4.55;;
78027;SDS011;74605;45.864;11.474;2023-12-29T04:32:02;9.07;;;4.60;;
78027;SDS011;74605;45.864;11.474;2023-12-29T04:34:28;10.98;;;4.50;;
78027;SDS011;74605;45.864;11.474;2023-12-29T04:36:54;10.35;;;4.65;;
78027;SDS011;74605;45.864;11.474;2023-12-29T04:39:20;9.30;;;4.53;;
78027;SDS011;74605;45.864;11.474;2023-12-29T04:41:46;9.90;;;4.63;;
78027;SDS011;74605;45.864;11.474;2023-12-29T04:44:12;13.00;;;4.68;;
78027;SDS011;74605;45.864;11.474;2023-12-29T04:46:38;10.60;;;4.85;;
78027;SDS011;74605;45.864;11.474;2023-12-29T04:49:04;10.13;;;4.15;;
78027;SDS011;74605;45.864;11.474;2023-12-29T04:51:30;9.85;;;4.78;;
78027;SDS011;74605;45.864;11.474;2023-12-29T04:53:56;9.60;;;4.65;;
78027;SDS011;74605;45.864;11.474;2023-12-29T04:56:22;10.43;;;4.53;;
78027;SDS011;74605;45.864;11.474;2023-12-29T04:58:48;10.63;;;4.57;;
78027;SDS011;74605;45.864;11.474;2023-12-29T05:01:16;9.63;;;4.00;;
78027;SDS011;74605;45.864;11.474;2023-12-29T05:03:42;9.43;;;4.32;;
78027;SDS011;74605;45.864;11.474;2023-12-29T05:06:08;9.50;;;3.77;;
78027;SDS011;74605;45.864;11.474;2023-12-29T05:08:34;9.68;;;4.50;;
78027;SDS011;74605;45.864;11.474;2023-12-29T05:11:00;9.85;;;4.72;;
78027;SDS011;74605;45.864;11.474;2023-12-29T05:13:26;10.27;;;4.83;;
78027;SDS011;74605;45.864;11.474;2023-12-29T05:15:52;10.18;;;4.78;;
78027;SDS011;74605;45.864;11.474;2023-12-29T05:18:18;10.80;;;4.65;;
78027;SDS011;74605;45.864;11.474;2023-12-29T05:20:44;9.88;;;4.10;;
78027;SDS011;74605;45.864;11.474;2023-12-29T05:23:11;11.37;;;4.23;;
78027;SDS011;74605;45.864;11.474;2023-12-29T05:25:37;9.25;;;3.83;;
78027;SDS011;74605;45.864;11.474;2023-12-29T05:28:03;9.90;;;4.35;;
78027;SDS011;74605;45.864;11.474;2023-12-29T05:30:29;9.70;;;4.17;;
78027;SDS011;74605;45.864;11.474;2023-12-29T05:32:57;10.52;;;4.70;;
78027;SDS011;74605;45.864;11.474;2023-12-29T05:35:23;11.27;;;4.85;;
78027;SDS011;74605;45.864;11.474;2023-12-29T05:37:49;11.20;;;5.13;;
78027;SDS011;74605;45.864;11.474;2023-12-29T05:40:16;9.93;;;4.70;;
78027;SDS011;74605;45.864;11.474;2023-12-29T05:42:42;8.53;;;4.10;;
78027;SDS011;74605;45.864;11.474;2023-12-29T05:45:09;9.63;;;4.43;;
78027;SDS011;74605;45.864;11.474;2023-12-29T05:47:35;10.00;;;4.32;;
78027;SDS011;74605;45.864;11.474;2023-12-29T05:50:00;9.77;;;4.20;;
78027;SDS011;74605;45.864;11.474;2023-12-29T05:52:27;9.77;;;3.95;;
78027;SDS011;74605;45.864;11.474;2023-12-29T05:54:53;11.60;;;5.20;;
78027;SDS011;74605;45.864;11.474;2023-12-29T05:57:20;12.00;;;5.57;;
78027;SDS011;74605;45.864;11.474;2023-12-29T05:59:45;11.43;;;5.20;;
78027;SDS011;74605;45.864;11.474;2023-12-29T06:02:11;11.80;;;5.13;;
78027;SDS011;74605;45.864;11.474;2023-12-29T06:04:37;11.88;;;4.38;;
78027;SDS011;74605;45.864;11.474;2023-12-29T06:07:03;9.60;;;5.25;;
78027;SDS011;74605;45.864;11.474;2023-12-29T06:09:29;10.87;;;4.40;;
78027;SDS011;74605;45.864;11.474;2023-12-29T06:11:55;11.40;;;4.80;;
78027;SDS011;74605;45.864;11.474;2023-12-29T06:14:21;10.52;;;4.78;;
78027;SDS011;74605;45.864;11.474;2023-12-29T06:16:47;14.55;;;5.68;;
78027;SDS011;74605;45.864;11.474;2023-12-29T06:19:13;11.90;;;5.50;;
78027;SDS011;74605;45.864;11.474;2023-12-29T06:21:42;12.18;;;5.53;;
78027;SDS011;74605;45.864;11.474;2023-12-29T06:24:11;14.73;;;6.38;;
78027;SDS011;74605;45.864;11.474;2023-12-29T06:26:37;12.63;;;5.50;;
78027;SDS011;74605;45.864;11.474;2023-12-29T06:29:08;14.27;;;6.50;;
78027;SDS011;74605;45.864;11.474;2023-12-29T06:31:35;14.68;;;5.57;;
78027;SDS011;74605;45.864;11.474;2023-12-29T06:34:01;12.05;;;5.93;;
78027;SDS011;74605;45.864;11.474;2023-12-29T06:36:27;13.07;;;6.65;;
78027;SDS011;74605;45.864;11.474;2023-12-29T06:38:53;12.80;;;6.30;;
78027;SDS011;74605;45.864;11.474;2023-12-29T06:41:19;14.63;;;6.53;;
78027;SDS011;74605;45.864;11.474;2023-12-29T06:43:45;14.18;;;6.45;;
78027;SDS011;74605;45.864;11.474;2023-12-29T06:46:11;14.02;;;6.20;;
78027;SDS011;74605;45.864;11.474;2023-12-29T06:48:40;13.88;;;6.65;;
78027;SDS011;74605;45.864;11.474;2023-12-29T06:51:06;12.65;;;6.60;;
78027;SDS011;74605;45.864;11.474;2023-12-29T06:53:33;12.45;;;5.57;;
78027;SDS011;74605;45.864;11.474;2023-12-29T06:55:59;11.60;;;6.00;;
78027;SDS011;74605;45.864;11.474;2023-12-29T06:58:25;21.13;;;10.77;;
78027;SDS011;74605;45.864;11.474;2023-12-29T07:00:51;62.47;;;34.47;;
78027;SDS011;74605;45.864;11.474;2023-12-29T07:03:16;31.25;;;16.55;;
78027;SDS011;74605;45.864;11.474;2023-12-29T07:05:42;19.03;;;8.90;;
78027;SDS011;74605;45.864;11.474;2023-12-29T07:08:08;21.45;;;10.18;;
78027;SDS011;74605;45.864;11.474;2023-12-29T07:10:37;18.00;;;8.85;;
78027;SDS011;74605;45.864;11.474;2023-12-29T07:13:03;19.08;;;8.77;;
78027;SDS011;74605;45.864;11.474;2023-12-29T07:15:29;33.07;;;14.80;;
78027;SDS011;74605;45.864;11.474;2023-12-29T07:17:55;20.10;;;8.30;;
78027;SDS011;74605;45.864;11.474;2023-12-29T07:20:21;17.20;;;7.18;;
78027;SDS011;74605;45.864;11.474;2023-12-29T07:22:47;13.10;;;7.17;;
78027;SDS011;74605;45.864;11.474;2023-12-29T07:25:13;15.55;;;7.60;;
78027;SDS011;74605;45.864;11.474;2023-12-29T07:27:39;16.00;;;8.27;;
78027;SDS011;74605;45.864;11.474;2023-12-29T07:30:05;20.98;;;10.75;;
78027;SDS011;74605;45.864;11.474;2023-12-29T07:32:31;17.70;;;10.03;;
78027;SDS011;74605;45.864;11.474;2023-12-29T07:34:57;20.40;;;11.70;;
78027;SDS011;74605;45.864;11.474;2023-12-29T07:37:23;22.08;;;11.00;;
78027;SDS011;74605;45.864;11.474;2023-12-29T07:39:49;27.20;;;14.43;;
78027;SDS011;74605;45.864;11.474;2023-12-29T07:42:15;29.45;;;16.58;;
78027;SDS011;74605;45.864;11.474;2023-12-29T07:44:42;23.75;;;13.43;;
78027;SDS011;74605;45.864;11.474;2023-12-29T07:47:08;27.40;;;16.45;;
78027;SDS011;74605;45.864;11.474;2023-12-29T07:49:36;21.67;;;11.20;;
78027;SDS011;74605;45.864;11.474;2023-12-29T07:52:02;27.15;;;13.15;;
78027;SDS011;74605;45.864;11.474;2023-12-29T07:54:28;26.77;;;13.65;;
78027;SDS011;74605;45.864;11.474;2023-12-29T07:56:54;24.80;;;13.70;;
78027;SDS011;74605;45.864;11.474;2023-12-29T07:59:20;28.10;;;14.23;;
78027;SDS011;74605;45.864;11.474;2023-12-29T08:01:46;28.60;;;13.57;;
78027;SDS011;74605;45.864;11.474;2023-12-29T08:04:12;26.45;;;13.77;;
78027;SDS011;74605;45.864;11.474;2023-12-29T08:06:37;21.73;;;11.03;;
78027;SDS011;74605;45.864;11.474;2023-12-29T08:09:04;20.50;;;8.02;;
78027;SDS011;74605;45.864;11.474;2023-12-29T08:11:32;17.65;;;8.50;;
78027;SDS011;74605;45.864;11.474;2023-12-29T08:13:58;16.23;;;9.02;;
78027;SDS011;74605;45.864;11.474;2023-12-29T08:16:24;18.27;;;9.63;;
78027;SDS011;74605;45.864;11.474;2023-12-29T08:18:51;17.02;;;8.65;;
78027;SDS011;74605;45.864;11.474;2023-12-29T08:21:18;17.60;;;8.05;;
78027;SDS011;74605;45.864;11.474;2023-12-29T08:23:47;14.50;;;7.82;;
78027;SDS011;74605;45.864;11.474;2023-12-29T08:26:14;17.50;;;8.87;;
78027;SDS011;74605;45.864;11.474;2023-12-29T08:28:40;16.50;;;8.73;;
78027;SDS011;74605;45.864;11.474;2023-12-29T08:31:07;15.82;;;8.88;;
78027;SDS011;74605;45.864;11.474;2023-12-29T08:33:33;20.58;;;8.90;;
78027;SDS011;74605;45.864;11.474;2023-12-29T08:35:59;15.97;;;8.43;;
78027;SDS011;74605;45.864;11.474;2023-12-29T08:38:26;15.15;;;8.20;;
78027;SDS011;74605;45.864;11.474;2023-12-29T08:40:52;18.40;;;8.90;;
78027;SDS011;74605;45.864;11.474;2023-12-29T08:43:18;18.30;;;9.70;;
78027;SDS011;74605;45.864;11.474;2023-12-29T08:45:49;22.02;;;11.13;;
78027;SDS011;74605;45.864;11.474;2023-12-29T08:48:15;24.42;;;12.52;;
78027;SDS011;74605;45.864;11.474;2023-12-29T08:50:42;21.77;;;11.93;;
78027;SDS011;74605;45.864;11.474;2023-12-29T08:53:08;21.63;;;12.32;;
78027;SDS011;74605;45.864;11.474;2023-12-29T08:55:35;26.70;;;14.37;;
78027;SDS011;74605;45.864;11.474;2023-12-29T08:58:01;24.10;;;14.50;;
78027;SDS011;74605;45.864;11.474;2023-12-29T09:00:27;23.30;;;13.30;;
78027;SDS011;74605;45.864;11.474;2023-12-29T09:02:55;23.25;;;12.85;;
78027;SDS011;74605;45.864;11.474;2023-12-29T09:05:22;20.70;;;11.68;;
78027;SDS011;74605;45.864;11.474;2023-12-29T09:07:48;18.23;;;9.87;;
78027;SDS011;74605;45.864;11.474;2023-12-29T09:10:14;20.55;;;11.40;;
78027;SDS011;74605;45.864;11.474;2023-12-29T09:12:40;20.73;;;12.57;;
78027;SDS011;74605;45.864;11.474;2023-12-29T09:15:06;31.00;;;18.30;;
78027;SDS011;74605;45.864;11.474;2023-12-29T09:17:33;19.97;;;11.90;;
78027;SDS011;74605;45.864;11.474;2023-12-29T09:19:59;24.35;;;12.55;;
78027;SDS011;74605;45.864;11.474;2023-12-29T09:22:26;23.00;;;13.52;;
78027;SDS011;74605;45.864;11.474;2023-12-29T09:24:53;22.33;;;12.63;;
78027;SDS011;74605;45.864;11.474;2023-12-29T09:27:20;21.50;;;11.98;;
78027;SDS011;74605;45.864;11.474;2023-12-29T09:29:45;17.47;;;10.23;;
78027;SDS011;74605;45.864;11.474;2023-12-29T09:32:11;16.42;;;8.80;;
78027;SDS011;74605;45.864;11.474;2023-12-29T09:34:37;12.68;;;6.95;;
78027;SDS011;74605;45.864;11.474;2023-12-29T09:37:03;13.53;;;6.20;;
78027;SDS011;74605;45.864;11.474;2023-12-29T09:39:29;11.73;;;5.75;;
78027;SDS011;74605;45.864;11.474;2023-12-29T09:41:57;9.35;;;4.95;;
78027;SDS011;74605;45.864;11.474;2023-12-29T09:44:27;8.77;;;4.00;;
78027;SDS011;74605;45.864;11.474;2023-12-29T09:46:54;11.40;;;5.72;;
78027;SDS011;74605;45.864;11.474;2023-12-29T09:49:21;10.95;;;5.65;;
78027;SDS011;74605;45.864;11.474;2023-12-29T09:51:48;10.57;;;4.65;;
78027;SDS011;74605;45.864;11.474;2023-12-29T09:54:15;10.65;;;6.28;;
78027;SDS011;74605;45.864;11.474;2023-12-29T09:56:41;9.80;;;5.30;;
78027;SDS011;74605;45.864;11.474;2023-12-29T09:59:09;13.15;;;6.82;;
78027;SDS011;74605;45.864;11.474;2023-12-29T10:01:36;9.75;;;5.72;;
78027;SDS011;74605;45.864;11.474;2023-12-29T10:04:04;11.35;;;6.07;;
78027;SDS011;74605;45.864;11.474;2023-12-29T10:06:31;8.98;;;4.90;;
78027;SDS011;74605;45.864;11.474;2023-12-29T10:09:01;11.65;;;6.03;;
78027;SDS011;74605;45.864;11.474;2023-12-29T10:11:32;46.67;;;26.77;;
78027;SDS011;74605;45.864;11.474;2023-12-29T10:14:02;20.42;;;11.27;;
78027;SDS011;74605;45.864;11.474;2023-12-29T10:16:42;13.95;;;7.03;;
78027;SDS011;74605;45.864;11.474;2023-12-29T10:22:00;11.98;;;6.63;;
78027;SDS011;74605;45.864;11.474;2023-12-29T10:24:32;9.68;;;5.70;;
78027;SDS011;74605;45.864;11.474;2023-12-29T10:26:59;12.00;;;6.03;;
78027;SDS011;74605;45.864;11.474;2023-12-29T10:29:27;10.57;;;6.63;;
78027;SDS011;74605;45.864;11.474;2023-12-29T10:31:53;12.27;;;6.93;;
78027;SDS011;74605;45.864;11.474;2023-12-29T10:34:22;10.60;;;5.65;;
78027;SDS011;74605;45.864;11.474;2023-12-29T10:36:58;13.30;;;6.55;;
78027;SDS011;74605;45.864;11.474;2023-12-29T10:39:26;12.55;;;6.55;;
78027;SDS011;74605;45.864;11.474;2023-12-29T10:42:05;11.95;;;6.53;;
78027;SDS011;74605;45.864;11.474;2023-12-29T10:44:36;11.37;;;6.57;;
78027;SDS011;74605;45.864;11.474;2023-12-29T10:47:11;13.63;;;7.50;;
78027;SDS011;74605;45.864;11.474;2023-12-29T10:49:41;14.98;;;7.97;;
78027;SDS011;74605;45.864;11.474;2023-12-29T10:52:13;14.43;;;8.05;;
78027;SDS011;74605;45.864;11.474;2023-12-29T10:54:40;14.52;;;7.25;;
78027;SDS011;74605;45.864;11.474;2023-12-29T10:57:08;20.33;;;11.20;;
78027;SDS011;74605;45.864;11.474;2023-12-29T10:59:36;15.55;;;8.45;;
78027;SDS011;74605;45.864;11.474;2023-12-29T11:02:03;17.85;;;10.73;;
78027;SDS011;74605;45.864;11.474;2023-12-29T11:04:29;16.30;;;9.65;;
78027;SDS011;74605;45.864;11.474;2023-12-29T11:06:55;21.60;;;12.82;;
78027;SDS011;74605;45.864;11.474;2023-12-29T11:09:31;17.27;;;10.00;;
78027;SDS011;74605;45.864;11.474;2023-12-29T11:12:01;17.00;;;8.70;;
78027;SDS011;74605;45.864;11.474;2023-12-29T11:14:28;16.92;;;9.98;;
78027;SDS011;74605;45.864;11.474;2023-12-29T11:16:55;17.88;;;9.30;;
78027;SDS011;74605;45.864;11.474;2023-12-29T11:19:22;16.60;;;9.52;;
78027;SDS011;74605;45.864;11.474;2023-12-29T11:21:57;30.77;;;19.17;;
78027;SDS011;74605;45.864;11.474;2023-12-29T11:24:23;18.27;;;10.07;;
78027;SDS011;74605;45.864;11.474;2023-12-29T11:26:50;15.27;;;8.02;;
78027;SDS011;74605;45.864;11.474;2023-12-29T11:29:16;15.77;;;8.82;;
78027;SDS011;74605;45.864;11.474;2023-12-29T11:31:43;16.73;;;8.83;;
78027;SDS011;74605;45.864;11.474;2023-12-29T11:34:53;13.23;;;7.28;;
78027;SDS011;74605;45.864;11.474;2023-12-29T11:42:31;14.23;;;8.57;;
78027;SDS011;74605;45.864;11.474;2023-12-29T11:45:47;16.77;;;8.87;;
78027;SDS011;74605;45.864;11.474;2023-12-29T11:47:53;19.70;;;9.02;;
78027;SDS011;74605;45.864;11.474;2023-12-29T11:50:31;18.75;;;9.40;;
78027;SDS011;74605;45.864;11.474;2023-12-29T11:52:58;14.25;;;7.95;;
78027;SDS011;74605;45.864;11.474;2023-12-29T11:55:28;19.48;;;10.80;;
78027;SDS011;74605;45.864;11.474;2023-12-29T11:57:56;18.53;;;9.70;;
78027;SDS011;74605;45.864;11.474;2023-12-29T12:03:25;15.88;;;8.90;;
78027;SDS011;74605;45.864;11.474;2023-12-29T12:05:52;17.13;;;9.75;;
78027;SDS011;74605;45.864;11.474;2023-12-29T12:08:27;19.02;;;9.75;;
78027;SDS011;74605;45.864;11.474;2023-12-29T12:13:55;27.27;;;13.60;;
78027;SDS011;74605;45.864;11.474;2023-12-29T12:19:19;22.80;;;11.02;;
78027;SDS011;74605;45.864;11.474;2023-12-29T12:21:47;17.52;;;9.65;;
78027;SDS011;74605;45.864;11.474;2023-12-29T12:24:14;45.87;;;16.17;;
78027;SDS011;74605;45.864;11.474;2023-12-29T12:26:40;16.40;;;8.95;;
78027;SDS011;74605;45.864;11.474;2023-12-29T12:29:06;19.13;;;9.15;;
78027;SDS011;74605;45.864;11.474;2023-12-29T12:31:33;22.17;;;12.02;;
78027;SDS011;74605;45.864;11.474;2023-12-29T12:33:59;36.13;;;16.88;;
78027;SDS011;74605;45.864;11.474;2023-12-29T12:36:25;26.33;;;11.93;;
78027;SDS011;74605;45.864;11.474;2023-12-29T12:41:18;20.13;;;9.13;;
78027;SDS011;74605;45.864;11.474;2023-12-29T12:43:48;22.67;;;9.00;;
78027;SDS011;74605;45.864;11.474;2023-12-29T12:49:12;21.30;;;9.23;;
78027;SDS011;74605;45.864;11.474;2023-12-29T12:51:39;26.25;;;9.50;;
78027;SDS011;74605;45.864;11.474;2023-12-29T12:54:05;24.35;;;9.20;;
78027;SDS011;74605;45.864;11.474;2023-12-29T12:56:33;21.20;;;9.55;;
78027;SDS011;74605;45.864;11.474;2023-12-29T12:59:01;17.73;;;8.57;;
78027;SDS011;74605;45.864;11.474;2023-12-29T13:01:28;33.00;;;13.60;;
78027;SDS011;74605;45.864;11.474;2023-12-29T13:03:56;28.23;;;10.85;;
78027;SDS011;74605;45.864;11.474;2023-12-29T13:06:23;29.63;;;12.00;;
78027;SDS011;74605;45.864;11.474;2023-12-29T13:08:50;35.15;;;18.33;;
78027;SDS011;74605;45.864;11.474;2023-12-29T13:11:20;36.50;;;19.57;;
78027;SDS011;74605;45.864;11.474;2023-12-29T13:13:47;35.72;;;18.92;;
78027;SDS011;74605;45.864;11.474;2023-12-29T13:16:13;27.55;;;14.52;;
78027;SDS011;74605;45.864;11.474;2023-12-29T13:18:39;35.45;;;17.90;;
78027;SDS011;74605;45.864;11.474;2023-12-29T13:21:05;24.98;;;13.82;;
78027;SDS011;74605;45.864;11.474;2023-12-29T13:23:32;43.63;;;17.13;;
78027;SDS011;74605;45.864;11.474;2023-12-29T13:26:05;31.52;;;14.15;;
78027;SDS011;74605;45.864;11.474;2023-12-29T13:28:34;34.80;;;17.45;;
78027;SDS011;74605;45.864;11.474;2023-12-29T13:31:01;28.60;;;13.82;;
78027;SDS011;74605;45.864;11.474;2023-12-29T13:36:15;32.80;;;11.27;;
78027;SDS011;74605;45.864;11.474;2023-12-29T13:38:51;25.08;;;11.30;;
78027;SDS011;74605;45.864;11.474;2023-12-29T13:41:21;36.42;;;14.43;;
78027;SDS011;74605;45.864;11.474;2023-12-29T13:43:49;22.33;;;9.60;;
78027;SDS011;74605;45.864;11.474;2023-12-29T13:46:16;27.15;;;10.48;;
78027;SDS011;74605;45.864;11.474;2023-12-29T13:48:43;25.80;;;12.00;;
78027;SDS011;74605;45.864;11.474;2023-12-29T13:51:10;26.52;;;12.85;;
78027;SDS011;74605;45.864;11.474;2023-12-29T13:53:37;31.33;;;11.63;;
78027;SDS011;74605;45.864;11.474;2023-12-29T13:56:06;26.98;;;10.18;;
78027;SDS011;74605;45.864;11.474;2023-12-29T13:58:35;79.10;;;29.77;;
78027;SDS011;74605;45.864;11.474;2023-12-29T14:01:03;29.98;;;12.60;;
78027;SDS011;74605;45.864;11.474;2023-12-29T14:03:47;37.50;;;14.63;;
78027;SDS011;74605;45.864;11.474;2023-12-29T14:06:20;27.98;;;11.30;;
78027;SDS011;74605;45.864;11.474;2023-12-29T14:08:53;25.25;;;12.05;;
78027;SDS011;74605;45.864;11.474;2023-12-29T14:11:19;23.03;;;10.57;;
78027;SDS011;74605;45.864;11.474;2023-12-29T14:13:45;27.90;;;12.82;;
78027;SDS011;74605;45.864;11.474;2023-12-29T14:16:13;32.60;;;13.32;;
78027;SDS011;74605;45.864;11.474;2023-12-29T14:23:58;38.07;;;14.80;;
78027;SDS011;74605;45.864;11.474;2023-12-29T14:26:24;36.50;;;15.05;;
78027;SDS011;74605;45.864;11.474;2023-12-29T14:29:00;27.98;;;13.68;;
78027;SDS011;74605;45.864;11.474;2023-12-29T14:31:27;33.38;;;19.27;;
78027;SDS011;74605;45.864;11.474;2023-12-29T14:33:53;23.15;;;12.73;;
78027;SDS011;74605;45.864;11.474;2023-12-29T14:36:19;30.23;;;15.43;;
78027;SDS011;74605;45.864;11.474;2023-12-29T14:38:45;26.92;;;14.95;;
78027;SDS011;74605;45.864;11.474;2023-12-29T14:41:11;26.73;;;13.43;;
78027;SDS011;74605;45.864;11.474;2023-12-29T14:43:37;25.60;;;12.88;;
78027;SDS011;74605;45.864;11.474;2023-12-29T14:46:03;25.55;;;12.43;;
78027;SDS011;74605;45.864;11.474;2023-12-29T14:48:29;19.58;;;9.98;;
78027;SDS011;74605;45.864;11.474;2023-12-29T14:50:55;31.92;;;14.00;;
78027;SDS011;74605;45.864;11.474;2023-12-29T14:53:22;41.50;;;16.73;;
78027;SDS011;74605;45.864;11.474;2023-12-29T14:55:50;43.28;;;18.52;;